createdAt,value
2018-08-04T00:01:07.081Z,3.67
2018-08-04T00:03:35.345Z,4.30
2018-08-04T00:06:03.548Z,3.60
2018-08-04T00:08:31.836Z,3.53
2018-08-04T00:11:00.159Z,3.40
2018-08-04T00:13:28.392Z,3.53
2018-08-04T00:15:56.685Z,3.77
2018-08-04T00:18:25.301Z,3.53
2018-08-04T00:20:53.625Z,3.93
2018-08-04T00:23:21.833Z,3.70
2018-08-04T00:25:50.061Z,3.47
2018-08-04T00:28:18.283Z,3.40
2018-08-04T00:30:46.527Z,3.90
2018-08-04T00:33:15.097Z,3.47
2018-08-04T00:35:49.732Z,3.80
2018-08-04T00:38:17.998Z,3.70
2018-08-04T00:40:46.574Z,3.60
2018-08-04T00:43:14.776Z,3.67
2018-08-04T00:45:42.993Z,3.30
2018-08-04T00:48:11.395Z,3.70
2018-08-04T00:50:39.613Z,3.43
2018-08-04T00:53:08.142Z,3.20
2018-08-04T00:55:36.360Z,3.30
2018-08-04T00:58:04.557Z,3.23
2018-08-04T01:00:32.804Z,3.70
2018-08-04T01:03:01.353Z,3.27
2018-08-04T01:05:29.586Z,3.40
2018-08-04T01:07:57.794Z,3.40
2018-08-04T01:10:26.000Z,3.40
2018-08-04T01:12:54.198Z,3.70
2018-08-04T01:15:22.455Z,3.00
2018-08-04T01:17:50.702Z,3.40
2018-08-04T01:20:19.496Z,3.80
2018-08-04T01:22:48.021Z,3.23
2018-08-04T01:25:16.400Z,3.80
2018-08-04T01:27:51.202Z,3.57
2018-08-04T01:30:19.440Z,3.67
2018-08-04T01:32:47.861Z,3.30
2018-08-04T01:35:16.082Z,3.50
2018-08-04T01:37:44.304Z,3.43
2018-08-04T01:40:12.509Z,3.40
2018-08-04T01:42:40.737Z,3.40
2018-08-04T01:45:09.052Z,3.30
2018-08-04T01:47:37.282Z,3.27
2018-08-04T01:50:05.728Z,3.13
2018-08-04T01:52:33.994Z,3.17
2018-08-04T01:55:02.449Z,3.37
2018-08-04T01:57:31.128Z,2.77
2018-08-04T01:59:59.113Z,3.40
2018-08-04T02:02:27.323Z,2.90
2018-08-04T02:04:55.532Z,2.73
2018-08-04T02:07:23.773Z,3.00
2018-08-04T02:09:52.188Z,3.60
2018-08-04T02:12:20.416Z,3.17
2018-08-04T02:14:48.619Z,3.33
2018-08-04T02:17:17.232Z,3.10
2018-08-04T02:19:45.468Z,3.27
2018-08-04T02:22:14.481Z,3.10
2018-08-04T02:24:42.667Z,3.10
2018-08-04T02:27:10.887Z,2.87
2018-08-04T02:29:39.125Z,2.97
2018-08-04T02:32:07.369Z,3.27
2018-08-04T02:34:35.323Z,2.73
2018-08-04T02:37:03.579Z,3.00
2018-08-04T02:39:31.924Z,2.70
2018-08-04T02:42:00.141Z,2.83
2018-08-04T02:44:28.456Z,2.90
2018-08-04T02:46:56.699Z,2.50
2018-08-04T02:49:24.925Z,2.50
2018-08-04T02:51:53.198Z,2.60
2018-08-04T02:54:21.421Z,2.43
2018-08-04T02:56:49.620Z,2.60
2018-08-04T02:59:18.860Z,2.50
2018-08-04T03:01:47.089Z,2.40
2018-08-04T03:04:15.320Z,2.93
2018-08-04T03:06:43.549Z,2.40
2018-08-04T03:09:21.765Z,2.63
2018-08-04T03:11:50.041Z,2.30
2018-08-04T03:14:18.281Z,2.60
2018-08-04T03:16:46.554Z,2.77
2018-08-04T03:19:15.294Z,2.37
2018-08-04T03:21:43.554Z,2.37
2018-08-04T03:24:11.782Z,2.00
2018-08-04T03:26:40.023Z,2.10
2018-08-04T03:29:08.272Z,2.00
2018-08-04T03:31:36.526Z,2.30
2018-08-04T03:34:04.737Z,2.57
2018-08-04T03:36:33.034Z,2.30
2018-08-04T03:39:01.351Z,2.30
2018-08-04T03:41:29.578Z,2.30
2018-08-04T03:43:57.940Z,2.20
2018-08-04T03:46:26.729Z,2.20
2018-08-04T03:48:55.008Z,2.70
2018-08-04T03:51:23.236Z,2.20
2018-08-04T03:53:51.499Z,2.23
2018-08-04T03:56:19.751Z,2.47
2018-08-04T03:58:50.107Z,2.37
2018-08-04T04:01:18.361Z,2.50
2018-08-04T04:03:46.633Z,2.40
2018-08-04T04:06:15.401Z,2.87
2018-08-04T04:08:43.640Z,2.20
2018-08-04T04:11:12.032Z,2.40
2018-08-04T04:13:40.362Z,2.37
2018-08-04T04:16:09.381Z,2.33
2018-08-04T04:18:38.436Z,2.77
2018-08-04T04:21:07.336Z,2.80
2018-08-04T04:23:35.662Z,2.60
2018-08-04T04:26:04.331Z,2.90
2018-08-04T04:28:33.643Z,2.40
2018-08-04T04:31:02.319Z,2.40
2018-08-04T04:33:30.873Z,2.53
2018-08-04T04:35:59.502Z,2.50
2018-08-04T04:38:27.976Z,2.60
2018-08-04T04:40:56.658Z,2.37
2018-08-04T04:43:25.949Z,2.40
2018-08-04T04:45:54.736Z,2.30
2018-08-04T04:48:23.274Z,2.50
2018-08-04T04:50:51.608Z,2.40
2018-08-04T04:53:19.994Z,2.43
2018-08-04T04:55:48.398Z,3.00
2018-08-04T04:58:16.701Z,2.40
2018-08-04T05:00:45.000Z,2.50
2018-08-04T05:03:14.694Z,2.67
2018-08-04T05:05:43.199Z,2.47
2018-08-04T05:08:11.623Z,2.67
2018-08-04T05:10:40.216Z,2.40
2018-08-04T05:13:08.913Z,2.47
2018-08-04T05:15:37.501Z,2.17
2018-08-04T05:18:06.097Z,2.53
2018-08-04T05:20:34.599Z,2.20
2018-08-04T05:23:03.375Z,2.50
2018-08-04T05:25:31.965Z,2.40
2018-08-04T05:28:00.507Z,2.70
2018-08-04T05:30:29.091Z,2.70
2018-08-04T05:32:57.725Z,2.30
2018-08-04T05:35:26.255Z,2.50
2018-08-04T05:37:54.790Z,2.50
2018-08-04T05:40:23.365Z,2.60
2018-08-04T05:42:51.926Z,2.40
2018-08-04T05:45:20.597Z,2.30
2018-08-04T05:47:50.024Z,2.27
2018-08-04T05:50:18.503Z,3.23
2018-08-04T05:52:46.989Z,2.30
2018-08-04T05:55:15.506Z,2.30
2018-08-04T05:57:44.121Z,2.50
2018-08-04T06:00:12.711Z,2.80
2018-08-04T06:02:41.342Z,2.47
2018-08-04T06:05:10.414Z,3.23
2018-08-04T06:07:38.982Z,2.40
2018-08-04T06:10:07.445Z,2.77
2018-08-04T06:12:36.052Z,2.30
2018-08-04T06:15:04.809Z,2.40
2018-08-04T06:17:33.456Z,2.70
2018-08-04T06:20:02.123Z,2.30
2018-08-04T06:22:30.701Z,2.40
2018-08-04T06:24:59.994Z,2.17
2018-08-04T06:27:28.605Z,2.30
2018-08-04T06:29:57.145Z,2.40
2018-08-04T06:32:25.706Z,2.60
2018-08-04T06:34:54.403Z,2.60
2018-08-04T06:37:24.028Z,2.63
2018-08-04T06:39:52.717Z,2.60
2018-08-04T06:42:21.352Z,2.67
2018-08-04T06:44:49.998Z,2.77
2018-08-04T06:47:18.557Z,2.60
2018-08-04T06:49:47.140Z,2.70
2018-08-04T06:52:15.648Z,2.67
2018-08-04T06:54:44.295Z,2.67
2018-08-04T06:57:14.151Z,2.27
2018-08-04T06:59:42.795Z,2.73
2018-08-04T07:02:11.354Z,2.87
2018-08-04T07:04:39.974Z,2.50
2018-08-04T07:07:08.940Z,2.70
2018-08-04T07:09:37.609Z,2.50
2018-08-04T07:12:06.263Z,2.40
2018-08-04T07:14:34.874Z,2.70
2018-08-04T07:17:03.577Z,2.27
2018-08-04T07:19:32.387Z,2.50
2018-08-04T07:22:02.272Z,2.40
2018-08-04T07:24:32.153Z,2.50
2018-08-04T07:27:00.835Z,2.20
2018-08-04T07:29:29.405Z,2.27
2018-08-04T07:31:58.009Z,2.00
2018-08-04T07:34:26.622Z,2.20
2018-08-04T07:36:55.310Z,2.17
2018-08-04T07:39:24.069Z,2.00
2018-08-04T07:41:52.788Z,2.40
2018-08-04T07:44:21.510Z,2.50
2018-08-04T07:46:50.200Z,2.50
2018-08-04T07:49:18.823Z,2.60
2018-08-04T07:51:47.477Z,2.30
2018-08-04T07:54:16.093Z,2.45
2018-08-04T07:56:44.827Z,2.35
2018-08-04T07:59:13.480Z,2.35
2018-08-04T08:01:42.628Z,2.65
2018-08-04T08:04:11.319Z,2.27
2018-08-04T08:06:39.970Z,2.05
2018-08-04T08:09:12.180Z,2.10
2018-08-04T08:11:40.974Z,2.45
2018-08-04T08:14:09.715Z,2.70
2018-08-04T08:16:38.322Z,2.98
2018-08-04T08:19:06.964Z,2.60
2018-08-04T08:21:35.685Z,2.20
2018-08-04T08:24:04.443Z,2.40
2018-08-04T08:26:34.592Z,2.75
2018-08-04T08:29:03.303Z,2.52
2018-08-04T08:31:32.079Z,2.40
2018-08-04T08:34:00.803Z,2.62
2018-08-04T08:36:29.823Z,2.50
2018-08-04T08:38:58.519Z,2.52
2018-08-04T08:41:27.207Z,2.30
2018-08-04T08:43:57.151Z,2.45
2018-08-04T08:46:25.833Z,2.25
2018-08-04T08:48:54.586Z,2.58
2018-08-04T08:51:23.370Z,2.10
2018-08-04T08:53:52.979Z,2.20
2018-08-04T08:56:23.269Z,2.35
2018-08-04T08:58:52.049Z,2.60
2018-08-04T09:01:20.763Z,2.08
2018-08-04T09:03:52.044Z,2.20
2018-08-04T09:06:20.888Z,2.10
2018-08-04T09:08:49.797Z,2.20
2018-08-04T09:11:19.256Z,2.30
2018-08-04T09:13:47.891Z,2.00
2018-08-04T09:16:16.502Z,2.25
2018-08-04T09:18:45.214Z,1.87
2018-08-04T09:21:14.117Z,1.82
2018-08-04T09:23:42.764Z,1.87
2018-08-04T09:26:11.682Z,1.75
2018-08-04T09:28:40.470Z,1.90
2018-08-04T09:31:09.743Z,1.95
2018-08-04T09:33:42.714Z,1.67
2018-08-04T09:36:11.566Z,1.60
2018-08-04T09:38:41.211Z,1.90
2018-08-04T09:41:09.944Z,1.70
2018-08-04T09:43:38.668Z,1.60
2018-08-04T09:46:07.211Z,1.72
2018-08-04T09:48:35.839Z,1.90
2018-08-04T09:51:04.085Z,1.60
2018-08-04T09:53:32.764Z,1.82
2018-08-04T09:56:01.482Z,2.00
2018-08-04T09:58:29.720Z,1.35
2018-08-04T10:01:03.639Z,1.70
2018-08-04T10:03:33.518Z,1.65
2018-08-04T10:06:02.189Z,1.55
2018-08-04T10:08:30.770Z,1.57
2018-08-04T10:10:59.393Z,1.65
2018-08-04T10:13:27.902Z,1.67
2018-08-04T10:15:56.471Z,1.40
2018-08-04T10:18:25.086Z,1.40
2018-08-04T10:20:53.739Z,1.85
2018-08-04T10:23:24.515Z,1.70
2018-08-04T10:25:53.267Z,1.60
2018-08-04T10:28:21.955Z,1.30
2018-08-04T10:30:50.587Z,1.32
2018-08-04T10:33:19.194Z,1.40
2018-08-04T10:35:47.799Z,1.42
2018-08-04T10:38:16.436Z,1.70
2018-08-04T10:40:44.950Z,1.37
2018-08-04T10:43:13.520Z,1.62
2018-08-04T10:45:41.806Z,1.72
2018-08-04T10:48:10.590Z,1.45
2018-08-04T10:50:39.171Z,1.65
2018-08-04T10:53:07.842Z,1.20
2018-08-04T10:55:36.740Z,1.22
2018-08-04T10:58:04.976Z,1.07
2018-08-04T11:00:33.550Z,1.42
2018-08-04T11:03:02.416Z,1.40
2018-08-04T11:05:31.142Z,1.60
2018-08-04T11:07:59.825Z,1.67
2018-08-04T11:10:28.398Z,1.45
2018-08-04T11:12:57.041Z,1.65
2018-08-04T11:15:25.780Z,1.60
2018-08-04T11:17:55.342Z,1.70
2018-08-04T11:20:24.027Z,1.62
2018-08-04T11:22:52.630Z,1.47
2018-08-04T11:25:21.282Z,1.67
2018-08-04T11:27:50.758Z,1.80
2018-08-04T11:30:19.384Z,1.45
2018-08-04T11:32:48.173Z,1.60
2018-08-04T11:35:16.948Z,1.45
2018-08-04T11:37:45.735Z,1.60
2018-08-04T11:40:14.247Z,1.45
2018-08-04T11:42:43.003Z,1.72
2018-08-04T11:45:12.900Z,1.57
2018-08-04T11:47:42.312Z,1.47
2018-08-04T11:50:10.906Z,1.55
2018-08-04T11:52:39.435Z,1.70
2018-08-04T11:55:08.111Z,1.90
2018-08-04T11:57:36.772Z,1.65
2018-08-04T12:00:05.193Z,1.90
2018-08-04T12:02:33.880Z,1.80
2018-08-04T12:05:02.518Z,1.77
2018-08-04T12:07:31.455Z,1.72
2018-08-04T12:10:00.035Z,1.90
2018-08-04T12:12:28.682Z,1.75
2018-08-04T12:14:57.319Z,1.90
2018-08-04T12:17:26.614Z,1.72
2018-08-04T12:19:55.240Z,1.70
2018-08-04T12:22:23.775Z,1.95
2018-08-04T12:24:53.928Z,2.00
2018-08-04T12:27:22.760Z,7.78
2018-08-04T12:29:51.494Z,3.20
2018-08-04T12:32:20.012Z,1.82
2018-08-04T12:34:48.532Z,1.80
2018-08-04T12:37:17.130Z,1.70
2018-08-04T12:39:45.634Z,1.82
2018-08-04T12:42:13.817Z,2.00
2018-08-04T12:44:44.359Z,1.87
2018-08-04T12:47:13.112Z,1.65
2018-08-04T12:49:42.575Z,1.75
2018-08-04T12:52:11.107Z,2.00
2018-08-04T12:54:39.669Z,1.70
2018-08-04T12:57:08.127Z,1.72
2018-08-04T12:59:36.696Z,1.90
2018-08-04T13:02:05.246Z,1.87
2018-08-04T13:04:33.921Z,2.00
2018-08-04T13:07:02.958Z,1.75
2018-08-04T13:09:31.642Z,1.87
2018-08-04T13:12:00.258Z,1.80
2018-08-04T13:14:28.820Z,1.80
2018-08-04T13:16:57.360Z,1.65
2018-08-04T13:19:28.527Z,1.67
2018-08-04T13:21:57.093Z,1.80
2018-08-04T13:24:25.641Z,1.70
2018-08-04T13:26:54.384Z,1.80
2018-08-04T13:29:23.254Z,1.60
2018-08-04T13:31:51.954Z,1.75
2018-08-04T13:34:20.607Z,1.50
2018-08-04T13:36:49.169Z,1.75
2018-08-04T13:39:17.655Z,1.77
2018-08-04T13:41:46.183Z,1.77
2018-08-04T13:44:14.782Z,1.80
2018-08-04T13:46:44.326Z,1.87
2018-08-04T13:49:13.003Z,1.75
2018-08-04T13:51:41.639Z,1.82
2018-08-04T13:54:10.203Z,1.77
2018-08-04T13:56:38.720Z,1.80
2018-08-04T13:59:07.262Z,1.60
2018-08-04T14:01:36.106Z,1.60
2018-08-04T14:04:04.769Z,1.65
2018-08-04T14:06:34.574Z,1.60
2018-08-04T14:09:03.286Z,1.90
2018-08-04T14:11:31.887Z,1.50
2018-08-04T14:14:00.524Z,1.77
2018-08-04T14:16:29.130Z,1.62
2018-08-04T14:18:57.635Z,1.60
2018-08-04T14:21:26.094Z,1.50
2018-08-04T14:23:54.917Z,1.57
2018-08-04T14:26:24.662Z,1.72
2018-08-04T14:28:53.302Z,1.42
2018-08-04T14:31:21.940Z,1.60
2018-08-04T14:33:50.508Z,1.30
2018-08-04T14:36:22.804Z,1.60
2018-08-04T14:38:51.390Z,1.40
2018-08-04T14:41:19.904Z,1.60
2018-08-04T14:43:48.415Z,1.40
2018-08-04T14:46:16.958Z,1.70
2018-08-04T14:48:45.539Z,1.40
2018-08-04T14:51:14.198Z,1.62
2018-08-04T14:53:42.819Z,1.57
2018-08-04T14:56:11.423Z,1.65
2018-08-04T14:58:40.117Z,1.40
2018-08-04T15:01:08.599Z,1.40
2018-08-04T15:03:37.094Z,1.32
2018-08-04T15:06:05.581Z,1.67
2018-08-04T15:08:36.185Z,1.02
2018-08-04T15:11:04.721Z,1.20
2018-08-04T15:13:33.230Z,1.62
2018-08-04T15:16:01.756Z,1.40
2018-08-04T15:18:30.910Z,1.75
2018-08-04T15:20:59.309Z,1.67
2018-08-04T15:23:27.747Z,1.10
2018-08-04T15:25:56.666Z,1.80
2018-08-04T15:28:25.292Z,1.42
2018-08-04T15:30:53.761Z,1.37
2018-08-04T15:33:22.380Z,1.72
2018-08-04T15:35:50.980Z,1.65
2018-08-04T15:38:19.448Z,1.50
2018-08-04T15:40:47.877Z,1.60
2018-08-04T15:43:16.284Z,1.50
2018-08-04T15:45:45.834Z,1.65
2018-08-04T15:48:15.498Z,1.40
2018-08-04T15:50:44.040Z,1.50
2018-08-04T15:53:12.527Z,1.75
2018-08-04T15:55:41.045Z,1.30
2018-08-04T15:58:09.483Z,1.32
2018-08-04T16:00:37.966Z,1.60
2018-08-04T16:03:06.497Z,1.25
2018-08-04T16:05:34.957Z,1.60
2018-08-04T16:08:03.617Z,1.50
2018-08-04T16:10:32.124Z,1.50
2018-08-04T16:13:00.565Z,1.57
2018-08-04T16:15:28.994Z,1.25
2018-08-04T16:17:57.466Z,1.50
2018-08-04T16:20:25.993Z,1.25
2018-08-04T16:22:54.586Z,1.30
2018-08-04T16:25:23.061Z,1.20
2018-08-04T16:27:52.771Z,1.12
2018-08-04T16:30:21.209Z,1.15
2018-08-04T16:32:49.609Z,1.40
2018-08-04T16:35:17.993Z,1.57
2018-08-04T16:37:46.582Z,1.10
2018-08-04T16:40:15.990Z,1.15
2018-08-04T16:42:44.472Z,1.10
2018-08-04T16:45:14.004Z,1.10
2018-08-04T16:47:42.531Z,1.55
2018-08-04T16:50:11.094Z,1.25
2018-08-04T16:52:39.544Z,1.50
2018-08-04T16:55:08.973Z,1.30
2018-08-04T16:57:37.391Z,1.30
2018-08-04T17:00:06.862Z,1.30
2018-08-04T17:02:35.360Z,1.25
2018-08-04T17:05:03.900Z,1.30
2018-08-04T17:07:33.635Z,1.30
2018-08-04T17:10:02.138Z,1.50
2018-08-04T17:12:30.592Z,1.25
2018-08-04T17:14:59.037Z,1.20
2018-08-04T17:17:27.430Z,1.50
2018-08-04T17:19:55.858Z,1.50
2018-08-04T17:22:24.435Z,1.30
2018-08-04T17:24:53.007Z,1.50
2018-08-04T17:27:21.376Z,1.37
2018-08-04T17:29:49.888Z,1.50
2018-08-04T17:32:18.349Z,1.42
2018-08-04T17:34:46.865Z,1.40
2018-08-04T17:37:15.400Z,1.47
2018-08-04T17:39:43.817Z,1.57
2018-08-04T17:42:12.388Z,1.55
2018-08-04T17:44:40.990Z,1.40
2018-08-04T17:47:09.572Z,1.80
2018-08-04T17:49:38.086Z,1.95
2018-08-04T17:52:06.633Z,1.50
2018-08-04T17:54:35.229Z,1.90
2018-08-04T17:57:04.309Z,1.95
2018-08-04T17:59:32.904Z,1.95
2018-08-04T18:02:01.417Z,2.10
2018-08-04T18:04:30.026Z,2.08
2018-08-04T18:06:58.532Z,1.77
2018-08-04T18:09:27.066Z,2.15
2018-08-04T18:11:55.550Z,1.82
2018-08-04T18:14:24.154Z,2.30
2018-08-04T18:16:52.886Z,2.22
2018-08-04T18:19:21.358Z,1.90
2018-08-04T18:21:49.902Z,1.87
2018-08-04T18:24:18.355Z,2.10
2018-08-04T18:26:46.789Z,2.12
2018-08-04T18:29:15.462Z,2.65
2018-08-04T18:31:43.994Z,2.40
2018-08-04T18:34:13.388Z,2.10
2018-08-04T18:36:41.954Z,2.27
2018-08-04T18:39:11.146Z,2.30
2018-08-04T18:41:40.019Z,2.47
2018-08-04T18:44:08.905Z,2.40
2018-08-04T18:46:37.366Z,2.70
2018-08-04T18:49:05.865Z,2.30
2018-08-04T18:51:34.373Z,2.20
2018-08-04T18:54:02.906Z,2.35
2018-08-04T18:56:31.381Z,2.20
2018-08-04T18:58:59.977Z,2.30
2018-08-04T19:01:28.593Z,2.20
2018-08-04T19:03:57.186Z,2.10
2018-08-04T19:06:25.744Z,2.03
2018-08-04T19:08:54.308Z,2.40
2018-08-04T19:11:22.841Z,2.23
2018-08-04T19:13:51.320Z,2.07
2018-08-04T19:16:19.908Z,2.20
2018-08-04T19:18:48.913Z,2.35
2018-08-04T19:21:17.727Z,2.20
2018-08-04T19:23:45.986Z,2.60
2018-08-04T19:26:14.216Z,2.40
2018-08-04T19:28:42.472Z,2.10
2018-08-04T19:31:10.780Z,2.10
2018-08-04T19:33:39.051Z,2.20
2018-08-04T19:36:07.307Z,2.40
2018-08-04T19:38:35.886Z,2.40
2018-08-04T19:41:04.100Z,2.27
2018-08-04T19:43:33.242Z,2.60
2018-08-04T19:46:01.415Z,2.30
2018-08-04T19:48:29.643Z,2.53
2018-08-04T19:50:57.821Z,2.33
2018-08-04T19:53:26.026Z,2.30
2018-08-04T19:55:54.356Z,2.30
2018-08-04T19:58:22.599Z,2.57
2018-08-04T20:00:50.829Z,2.40
2018-08-04T20:03:19.013Z,2.70
2018-08-04T20:05:47.263Z,2.43
2018-08-04T20:08:15.507Z,2.60
2018-08-04T20:10:43.741Z,2.57
2018-08-04T20:13:12.012Z,2.67
2018-08-04T20:15:40.249Z,2.33
2018-08-04T20:18:08.503Z,2.40
2018-08-04T20:20:36.750Z,2.73
2018-08-04T20:23:05.018Z,2.70
2018-08-04T20:25:33.274Z,2.20
2018-08-04T20:28:01.551Z,2.37
2018-08-04T20:30:29.725Z,2.43
2018-08-04T20:32:57.924Z,2.60
2018-08-04T20:35:26.136Z,2.27
2018-08-04T20:37:54.336Z,2.50
2018-08-04T20:40:22.573Z,2.13
2018-08-04T20:42:50.856Z,2.30
2018-08-04T20:45:19.065Z,2.30
2018-08-04T20:47:47.336Z,2.60
2018-08-04T20:50:15.644Z,2.17
2018-08-04T20:52:43.913Z,2.27
2018-08-04T20:55:12.109Z,2.50
2018-08-04T20:57:40.413Z,2.23
2018-08-04T21:00:08.672Z,2.03
2018-08-04T21:02:36.931Z,2.50
2018-08-04T21:05:05.249Z,2.43
2018-08-04T21:07:33.467Z,2.30
2018-08-04T21:10:01.743Z,2.13
2018-08-04T21:12:29.964Z,2.23
2018-08-04T21:14:58.247Z,2.10
2018-08-04T21:17:26.504Z,2.30
2018-08-04T21:19:54.882Z,2.30
2018-08-04T21:22:23.099Z,2.10
2018-08-04T21:24:51.344Z,2.00
2018-08-04T21:27:19.586Z,2.30
2018-08-04T21:29:47.748Z,1.97
2018-08-04T21:32:16.001Z,2.20
2018-08-04T21:34:44.229Z,2.10
2018-08-04T21:37:12.462Z,1.93
2018-08-04T21:39:40.656Z,2.23
2018-08-04T21:42:09.017Z,2.13
2018-08-04T21:44:37.218Z,2.30
2018-08-04T21:47:05.456Z,2.30
2018-08-04T21:49:33.704Z,2.00
2018-08-04T21:52:01.945Z,1.77
2018-08-04T21:54:30.164Z,2.30
2018-08-04T21:56:58.369Z,1.70
2018-08-04T21:59:26.641Z,2.00
2018-08-04T22:01:56.251Z,1.90
2018-08-04T22:04:24.849Z,1.77
2018-08-04T22:08:03.780Z,2.30
2018-08-04T22:10:32.002Z,2.10
2018-08-04T22:13:00.290Z,2.40
2018-08-04T22:15:28.452Z,2.10
2018-08-04T22:17:56.740Z,2.10
2018-08-04T22:20:25.688Z,2.00
2018-08-04T22:22:53.994Z,1.90
2018-08-04T22:25:23.552Z,1.93
2018-08-04T22:27:51.923Z,2.10
2018-08-04T22:30:21.142Z,2.10
2018-08-04T22:32:49.918Z,2.20
2018-08-04T22:35:18.253Z,2.23
2018-08-04T22:37:46.512Z,1.90
2018-08-04T22:40:15.219Z,2.20
2018-08-04T22:42:43.870Z,2.40
2018-08-04T22:45:52.147Z,2.10
2018-08-04T22:48:21.152Z,2.40
2018-08-04T22:50:49.363Z,2.27
2018-08-04T22:53:18.138Z,2.10
2018-08-04T22:55:46.371Z,2.57
2018-08-04T22:58:14.639Z,2.10
2018-08-04T23:00:43.973Z,2.30
2018-08-04T23:03:12.798Z,2.30
2018-08-04T23:05:41.121Z,2.20
2018-08-04T23:08:09.958Z,2.40
2018-08-04T23:10:45.170Z,2.23
2018-08-04T23:13:13.780Z,2.30
2018-08-04T23:15:42.053Z,2.10
2018-08-04T23:18:10.496Z,2.30
2018-08-04T23:20:38.701Z,2.20
2018-08-04T23:23:07.696Z,2.20
2018-08-04T23:25:35.997Z,2.20
2018-08-04T23:28:04.329Z,2.33
2018-08-04T23:30:32.584Z,2.23
2018-08-04T23:33:00.814Z,2.23
2018-08-04T23:35:29.075Z,2.37
2018-08-04T23:37:57.310Z,2.63
2018-08-04T23:40:25.572Z,2.33
2018-08-04T23:42:53.810Z,2.40
2018-08-04T23:45:22.074Z,2.30
2018-08-04T23:47:50.297Z,2.50
2018-08-04T23:50:18.611Z,2.30
2018-08-04T23:52:46.785Z,2.40
2018-08-04T23:55:15.018Z,2.57
2018-08-04T23:57:43.319Z,2.53
